createdAt,value
2022-08-12T00:02:04.309Z,76.60
2022-08-12T00:04:52.662Z,75.80
2022-08-12T00:07:38.947Z,75.80
2022-08-12T00:10:25.247Z,75.90
2022-08-12T00:13:12.363Z,75.70
2022-08-12T00:16:00.399Z,75.80
2022-08-12T00:18:46.342Z,75.90
2022-08-12T00:21:32.325Z,76.10
2022-08-12T00:24:22.571Z,76.10
2022-08-12T00:27:08.669Z,76.20
2022-08-12T00:29:55.512Z,76.30
2022-08-12T00:32:41.314Z,76.50
2022-08-12T00:35:40.801Z,76.40
2022-08-12T00:38:26.709Z,76.40
2022-08-12T00:41:13.870Z,76.40
2022-08-12T00:43:45.090Z,76.30
2022-08-12T00:46:32.376Z,77.30
2022-08-12T00:49:02.640Z,76.50
2022-08-12T00:51:52.954Z,76.60
2022-08-12T00:54:21.167Z,76.70
2022-08-12T00:56:50.997Z,76.70
2022-08-12T00:59:19.225Z,76.80
2022-08-12T01:02:10.595Z,76.80
2022-08-12T01:04:59.299Z,76.90
2022-08-12T01:07:47.430Z,77.10
2022-08-12T01:10:33.398Z,77.20
2022-08-12T01:13:07.730Z,77.30
2022-08-12T01:15:50.419Z,77.50
2022-08-12T01:18:21.246Z,77.80
2022-08-12T01:20:55.882Z,78.00
2022-08-12T01:23:50.295Z,78.20
2022-08-12T01:26:23.333Z,78.30
2022-08-12T01:28:55.926Z,78.40
2022-08-12T01:31:29.328Z,78.50
2022-08-12T01:34:03.566Z,78.60
2022-08-12T01:36:38.117Z,78.80
2022-08-12T01:39:06.642Z,79.10
2022-08-12T01:41:41.096Z,79.10
2022-08-12T01:44:12.633Z,79.30
2022-08-12T01:46:53.477Z,79.30
2022-08-12T01:49:44.288Z,79.60
2022-08-12T01:52:22.822Z,79.80
2022-08-12T01:54:52.831Z,80.10
2022-08-12T01:57:58.867Z,80.20
2022-08-12T02:00:19.119Z,80.50
2022-08-12T02:02:54.622Z,80.80
2022-08-12T02:05:57.000Z,80.90
2022-08-12T02:08:52.158Z,81.40
2022-08-12T02:11:25.996Z,81.80
2022-08-12T02:14:13.945Z,82.10
2022-08-12T02:16:59.179Z,82.20
2022-08-12T02:19:55.215Z,82.60
2022-08-12T02:22:28.829Z,82.80
2022-08-12T02:25:04.548Z,83.00
2022-08-12T02:27:39.429Z,83.30
2022-08-12T02:30:11.285Z,83.80
2022-08-12T02:32:42.988Z,84.10
2022-08-12T02:35:14.993Z,84.10
2022-08-12T02:37:45.499Z,84.30
2022-08-12T02:40:15.097Z,84.50
2022-08-12T02:42:52.488Z,84.40
2022-08-12T02:45:28.595Z,84.50
2022-08-12T02:48:01.140Z,84.70
2022-08-12T02:50:32.561Z,85.60
2022-08-12T02:53:01.513Z,84.90
2022-08-12T02:55:34.994Z,85.00
2022-08-12T02:58:12.509Z,85.10
2022-08-12T03:00:45.901Z,85.20
2022-08-12T03:03:15.491Z,85.20
2022-08-12T03:05:52.611Z,86.10
2022-08-12T03:08:32.553Z,85.70
2022-08-12T03:11:14.340Z,86.00
2022-08-12T03:13:47.310Z,86.20
2022-08-12T03:16:16.943Z,86.40
2022-08-12T03:18:46.289Z,86.60
2022-08-12T03:21:55.442Z,86.70
2022-08-12T03:24:08.976Z,87.10
2022-08-12T03:26:38.583Z,87.20
2022-08-12T03:29:07.888Z,87.40
2022-08-12T03:31:37.287Z,87.60
2022-08-12T03:34:08.624Z,87.60
2022-08-12T03:36:38.864Z,87.80
2022-08-12T03:39:36.999Z,87.80
2022-08-12T03:42:24.210Z,88.00
2022-08-12T03:45:15.775Z,88.30
2022-08-12T03:48:10.005Z,88.70
2022-08-12T03:50:55.929Z,89.00
2022-08-12T03:53:45.393Z,89.10
2022-08-12T03:56:31.343Z,89.50
2022-08-12T03:59:18.024Z,89.70
2022-08-12T04:01:52.513Z,89.80
2022-08-12T04:04:23.506Z,90.00
2022-08-12T04:06:52.430Z,90.00
2022-08-12T04:09:22.174Z,90.50
2022-08-12T04:12:08.521Z,90.30
2022-08-12T04:14:37.049Z,90.40
2022-08-12T04:17:05.772Z,90.60
2022-08-12T04:19:35.244Z,90.70
2022-08-12T04:22:03.963Z,90.80
2022-08-12T04:24:34.880Z,90.80
2022-08-12T04:27:05.471Z,90.90
2022-08-12T04:30:29.750Z,90.90
2022-08-12T04:32:22.961Z,91.00
2022-08-12T04:34:52.491Z,91.10
2022-08-12T04:37:20.935Z,91.10
2022-08-12T04:39:50.067Z,91.30
2022-08-12T04:42:18.605Z,91.30
2022-08-12T04:44:46.641Z,91.40
2022-08-12T04:47:16.517Z,91.60
2022-08-12T04:49:46.427Z,91.60
2022-08-12T04:52:16.401Z,91.60
2022-08-12T04:54:44.736Z,91.60
2022-08-12T04:57:12.852Z,91.70
2022-08-12T04:59:48.372Z,91.70
2022-08-12T05:02:21.719Z,91.80
2022-08-12T05:04:52.594Z,91.90
2022-08-12T05:07:24.348Z,91.90
2022-08-12T05:10:01.952Z,91.90
2022-08-12T05:12:36.560Z,91.80
2022-08-12T05:15:18.964Z,91.80
2022-08-12T05:17:53.617Z,91.70
2022-08-12T05:20:22.717Z,91.60
2022-08-12T05:22:57.120Z,91.50
2022-08-12T05:25:26.523Z,91.50
2022-08-12T05:27:57.931Z,91.40
2022-08-12T05:30:27.692Z,91.30
2022-08-12T05:33:00.222Z,91.20
2022-08-12T05:35:29.251Z,91.20
2022-08-12T05:38:12.587Z,90.90
2022-08-12T05:40:41.237Z,90.90
2022-08-12T05:43:09.693Z,90.70
2022-08-12T05:45:42.852Z,90.60
2022-08-12T05:48:13.293Z,90.50
2022-08-12T05:50:41.599Z,90.40
2022-08-12T05:53:11.040Z,90.30
2022-08-12T05:55:40.234Z,90.20
2022-08-12T05:58:09.089Z,90.00
2022-08-12T06:00:38.090Z,90.00
2022-08-12T06:03:07.517Z,89.50
2022-08-12T06:05:53.230Z,89.30
2022-08-12T06:08:26.131Z,89.00
2022-08-12T06:10:54.254Z,88.30
2022-08-12T06:13:25.694Z,88.20
2022-08-12T06:15:57.163Z,88.30
2022-08-12T06:18:29.299Z,88.90
2022-08-12T06:21:01.529Z,87.50
2022-08-12T06:23:31.443Z,87.30
2022-08-12T06:26:00.460Z,86.70
2022-08-12T06:28:30.526Z,86.70
2022-08-12T06:31:24.917Z,86.30
2022-08-12T06:34:00.521Z,85.90
2022-08-12T06:36:38.137Z,86.60
2022-08-12T06:39:14.691Z,86.40
2022-08-12T06:42:30.915Z,86.40
2022-08-12T06:44:50.414Z,86.70
2022-08-12T06:47:19.534Z,86.70
2022-08-12T06:49:48.626Z,86.20
2022-08-12T06:52:17.311Z,86.80
2022-08-12T06:54:46.737Z,86.40
2022-08-12T06:58:06.892Z,85.70
2022-08-12T07:00:04.412Z,85.80
2022-08-12T07:02:36.846Z,85.20
2022-08-12T07:05:06.329Z,85.50
2022-08-12T07:07:34.390Z,85.90
2022-08-12T07:10:08.202Z,85.30
2022-08-12T07:12:37.678Z,84.50
2022-08-12T07:15:06.749Z,83.90
2022-08-12T07:17:37.834Z,83.90
2022-08-12T07:20:29.803Z,83.10
2022-08-12T07:22:59.992Z,83.10
2022-08-12T07:25:40.648Z,83.50
2022-08-12T07:28:16.314Z,83.00
2022-08-12T07:30:46.101Z,82.80
2022-08-12T07:33:16.892Z,82.90
2022-08-12T07:35:48.175Z,83.00
2022-08-12T07:38:29.757Z,82.60
2022-08-12T07:41:03.344Z,82.20
2022-08-12T07:43:32.586Z,81.90
2022-08-12T07:46:02.149Z,81.80
2022-08-12T07:48:36.956Z,81.80
2022-08-12T07:51:05.889Z,82.00
2022-08-12T07:53:35.071Z,81.70
2022-08-12T07:56:19.845Z,81.30
2022-08-12T07:58:48.005Z,81.00
2022-08-12T08:01:19.696Z,80.20
2022-08-12T08:04:07.720Z,80.00
2022-08-12T08:06:36.097Z,80.00
2022-08-12T08:09:06.352Z,80.00
2022-08-12T08:11:53.504Z,79.20
2022-08-12T08:14:22.913Z,79.30
2022-08-12T08:16:51.029Z,78.70
2022-08-12T08:19:23.666Z,78.80
2022-08-12T08:21:52.175Z,79.10
2022-08-12T08:24:20.338Z,79.10
2022-08-12T08:26:52.118Z,77.10
2022-08-12T08:29:22.707Z,77.00
2022-08-12T08:31:54.642Z,77.00
2022-08-12T08:34:33.870Z,77.10
2022-08-12T08:37:17.515Z,77.20
2022-08-12T08:39:45.627Z,76.40
2022-08-12T08:42:32.416Z,76.60
2022-08-12T08:45:12.890Z,75.90
2022-08-12T08:47:44.499Z,75.60
2022-08-12T08:50:15.315Z,75.10
2022-08-12T08:52:43.723Z,75.20
2022-08-12T08:55:13.982Z,75.00
2022-08-12T08:57:47.718Z,74.00
2022-08-12T09:00:16.678Z,74.10
2022-08-12T09:02:49.171Z,74.50
2022-08-12T09:05:26.414Z,73.60
2022-08-12T09:08:09.139Z,73.70
2022-08-12T09:10:45.371Z,73.10
2022-08-12T09:14:12.254Z,71.70
2022-08-12T09:16:20.883Z,71.60
2022-08-12T09:18:52.133Z,70.80
2022-08-12T09:24:11.254Z,71.10
2022-08-12T09:26:46.235Z,70.70
2022-08-12T09:29:16.647Z,69.80
2022-08-12T09:32:02.803Z,68.90
2022-08-12T09:34:37.793Z,68.70
2022-08-12T09:37:19.661Z,68.70
2022-08-12T09:40:05.883Z,69.40
2022-08-12T09:43:15.477Z,69.60
2022-08-12T09:46:11.950Z,69.80
2022-08-12T09:48:39.326Z,68.00
2022-08-12T09:51:20.368Z,67.10
2022-08-12T09:54:10.621Z,67.50
2022-08-12T09:57:02.112Z,67.90
2022-08-12T10:00:14.810Z,68.50
2022-08-12T10:02:43.307Z,67.40
2022-08-12T10:05:13.808Z,67.30
2022-08-12T10:07:46.103Z,66.90
2022-08-12T10:10:24.372Z,67.30
2022-08-12T10:13:12.558Z,67.20
2022-08-12T10:16:03.041Z,67.50
2022-08-12T10:18:35.429Z,67.70
2022-08-12T10:21:07.916Z,67.10
2022-08-12T10:23:39.392Z,66.40
2022-08-12T10:26:36.960Z,67.00
2022-08-12T10:30:37.613Z,67.40
2022-08-12T10:32:44.157Z,64.80
2022-08-12T10:35:11.050Z,64.50
2022-08-12T10:38:39.128Z,65.10
2022-08-12T10:40:32.254Z,65.90
2022-08-12T10:43:18.924Z,65.20
2022-08-12T10:45:49.539Z,64.70
2022-08-12T10:48:33.637Z,64.00
2022-08-12T10:51:51.518Z,63.40
2022-08-12T10:54:00.643Z,63.20
2022-08-12T10:56:34.598Z,62.60
2022-08-12T10:59:05.239Z,62.90
2022-08-12T11:04:19.243Z,61.50
2022-08-12T11:04:41.425Z,61.00
2022-08-12T11:08:34.163Z,60.50
2022-08-12T11:10:02.827Z,58.50
2022-08-12T11:12:55.298Z,59.10
2022-08-12T11:15:33.553Z,59.50
2022-08-12T11:18:18.517Z,58.30
2022-08-12T11:20:49.038Z,58.90
2022-08-12T11:23:25.018Z,57.30
2022-08-12T11:26:06.505Z,57.30
2022-08-12T11:28:37.611Z,58.00
2022-08-12T11:31:12.387Z,59.00
2022-08-12T11:34:04.285Z,57.80
2022-08-12T11:36:31.822Z,57.50
2022-08-12T11:39:05.050Z,57.20
2022-08-12T11:41:34.754Z,57.20
2022-08-12T11:44:35.895Z,57.30
2022-08-12T11:46:54.104Z,58.10
2022-08-12T11:49:31.827Z,56.90
2022-08-12T11:52:02.329Z,56.60
2022-08-12T11:54:33.528Z,56.70
2022-08-12T11:58:14.251Z,57.70
2022-08-12T12:02:39.804Z,57.60
2022-08-12T12:05:08.929Z,57.30
2022-08-12T12:08:41.218Z,57.00
2022-08-12T12:10:29.351Z,57.20
2022-08-12T12:12:57.446Z,55.90
2022-08-12T12:15:37.386Z,55.90
2022-08-12T12:18:30.885Z,55.10
2022-08-12T12:21:01.174Z,56.50
2022-08-12T12:23:30.899Z,56.50
2022-08-12T12:26:09.768Z,56.10
2022-08-12T12:28:55.032Z,56.20
2022-08-12T12:32:09.863Z,55.60
2022-08-12T12:34:13.234Z,56.70
2022-08-12T12:37:00.974Z,55.40
2022-08-12T12:39:29.972Z,55.60
2022-08-12T12:42:52.189Z,56.00
2022-08-12T12:45:19.638Z,55.80
2022-08-12T12:47:59.510Z,55.80
2022-08-12T12:50:35.334Z,55.70
2022-08-12T12:53:04.245Z,55.90
2022-08-12T12:55:35.970Z,56.00
2022-08-12T12:58:14.411Z,56.00
2022-08-12T13:00:49.997Z,56.30
2022-08-12T13:03:19.479Z,55.40
2022-08-12T13:05:53.737Z,55.20
2022-08-12T13:08:28.241Z,55.30
2022-08-12T13:11:00.555Z,55.00
2022-08-12T13:14:07.006Z,55.60
2022-08-12T13:16:21.723Z,55.30
2022-08-12T13:18:50.501Z,55.10
2022-08-12T13:21:32.938Z,55.00
2022-08-12T13:24:02.625Z,54.90
2022-08-12T13:26:40.611Z,54.70
2022-08-12T13:29:11.502Z,54.00
2022-08-12T13:32:17.798Z,54.40
2022-08-12T13:34:34.314Z,53.90
2022-08-12T13:37:04.497Z,53.30
2022-08-12T13:39:37.327Z,53.60
2022-08-12T13:42:14.309Z,54.20
2022-08-12T13:44:46.336Z,55.10
2022-08-12T13:47:19.616Z,54.50
2022-08-12T13:49:55.394Z,54.30
2022-08-12T13:52:24.285Z,54.70
2022-08-12T13:54:56.143Z,54.80
2022-08-12T13:57:26.428Z,55.10
2022-08-12T14:00:00.787Z,54.80
2022-08-12T14:02:29.989Z,54.30
2022-08-12T14:04:58.029Z,53.80
2022-08-12T14:07:27.446Z,53.40
2022-08-12T14:10:16.352Z,52.90
2022-08-12T14:12:54.544Z,53.10
2022-08-12T14:15:36.746Z,53.60
2022-08-12T14:18:13.829Z,54.50
2022-08-12T14:20:47.572Z,54.10
2022-08-12T14:24:00.668Z,54.50
2022-08-12T14:26:07.385Z,54.60
2022-08-12T14:28:45.211Z,55.30
2022-08-12T14:31:32.031Z,54.90
2022-08-12T14:34:04.856Z,55.00
2022-08-12T14:36:34.156Z,54.70
2022-08-12T14:39:06.073Z,54.90
2022-08-12T14:41:36.909Z,53.90
2022-08-12T14:45:01.640Z,54.00
2022-08-12T14:47:07.597Z,53.90
2022-08-12T14:50:37.063Z,53.80
2022-08-12T14:52:55.966Z,53.60
2022-08-12T14:58:02.459Z,53.00
2022-08-12T15:00:52.412Z,52.40
2022-08-12T15:03:52.553Z,52.50
2022-08-12T15:06:44.428Z,52.50
2022-08-12T15:09:11.819Z,53.20
2022-08-12T15:11:54.539Z,53.00
2022-08-12T15:14:30.198Z,52.90
2022-08-12T15:17:00.458Z,52.80
2022-08-12T15:20:31.512Z,52.10
2022-08-12T15:22:37.233Z,52.40
2022-08-12T15:25:07.946Z,52.00
2022-08-12T15:28:05.607Z,51.80
2022-08-12T15:30:32.232Z,51.80
2022-08-12T15:33:12.379Z,52.20
2022-08-12T15:35:50.250Z,52.50
2022-08-12T15:38:25.269Z,53.10
2022-08-12T15:40:54.285Z,53.50
2022-08-12T15:43:51.959Z,53.80
2022-08-12T15:46:15.638Z,54.10
2022-08-12T15:48:46.814Z,53.90
2022-08-12T15:51:57.609Z,53.70
2022-08-12T15:54:35.231Z,53.40
2022-08-12T15:57:08.165Z,53.50
2022-08-12T15:59:51.317Z,53.10
2022-08-12T16:02:29.880Z,53.00
2022-08-12T16:04:58.398Z,52.90
2022-08-12T16:07:29.850Z,54.10
2022-08-12T16:10:05.390Z,53.60
2022-08-12T16:12:43.146Z,53.30
2022-08-12T16:15:13.342Z,53.70
2022-08-12T16:18:18.868Z,53.30
2022-08-12T16:20:33.743Z,53.50
2022-08-12T16:23:26.289Z,53.70
2022-08-12T16:26:05.485Z,53.60
2022-08-12T16:28:38.306Z,53.30
2022-08-12T16:31:06.577Z,53.00
2022-08-12T16:33:59.468Z,52.80
2022-08-12T16:36:31.338Z,52.70
2022-08-12T16:39:03.434Z,52.40
2022-08-12T16:41:39.509Z,52.60
2022-08-12T16:44:08.632Z,52.60
2022-08-12T16:46:37.561Z,52.70
2022-08-12T16:49:13.075Z,52.80
2022-08-12T16:51:46.985Z,53.20
2022-08-12T16:54:18.664Z,53.20
2022-08-12T16:56:55.152Z,53.00
2022-08-12T16:59:31.031Z,53.40
2022-08-12T17:02:31.322Z,53.40
2022-08-12T17:05:04.098Z,53.50
2022-08-12T17:07:36.124Z,52.80
2022-08-12T17:10:08.832Z,52.90
2022-08-12T17:12:38.296Z,52.90
2022-08-12T17:15:25.645Z,53.10
2022-08-12T17:18:39.285Z,53.50
2022-08-12T17:20:47.668Z,53.50
2022-08-12T17:23:17.772Z,53.70
2022-08-12T17:25:52.915Z,53.80
2022-08-12T17:28:22.661Z,53.90
2022-08-12T17:30:57.408Z,54.10
2022-08-12T17:33:33.530Z,54.50
2022-08-12T17:36:05.711Z,54.90
2022-08-12T17:38:35.037Z,55.10
2022-08-12T17:41:22.774Z,55.30
2022-08-12T17:43:56.372Z,55.60
2022-08-12T17:46:33.364Z,56.00
2022-08-12T17:49:18.802Z,56.40
2022-08-12T17:52:02.914Z,56.80
2022-08-12T17:54:32.825Z,57.20
2022-08-12T17:57:16.417Z,57.20
2022-08-12T17:59:48.741Z,57.40
2022-08-12T18:02:25.426Z,57.70
2022-08-12T18:05:05.401Z,57.80
2022-08-12T18:07:39.452Z,58.00
2022-08-12T18:10:08.787Z,57.80
2022-08-12T18:12:40.154Z,57.90
2022-08-12T18:15:26.275Z,57.80
2022-08-12T18:18:02.637Z,58.00
2022-08-12T18:20:35.318Z,58.20
2022-08-12T18:23:06.092Z,58.30
2022-08-12T18:26:14.085Z,58.50
2022-08-12T18:28:43.378Z,58.70
2022-08-12T18:31:13.566Z,58.80
2022-08-12T18:33:45.546Z,59.00
2022-08-12T18:36:22.065Z,59.90
2022-08-12T18:38:55.928Z,59.20
2022-08-12T18:41:34.107Z,59.50
2022-08-12T18:44:09.304Z,59.60
2022-08-12T18:46:53.813Z,59.80
2022-08-12T18:49:31.623Z,60.20
2022-08-12T18:52:04.790Z,60.30
2022-08-12T18:54:36.350Z,60.30
2022-08-12T18:57:19.422Z,60.20
2022-08-12T19:00:00.132Z,60.50
2022-08-12T19:02:33.002Z,60.80
2022-08-12T19:05:09.945Z,60.70
2022-08-12T19:07:49.755Z,61.00
2022-08-12T19:10:27.544Z,61.00
2022-08-12T19:13:18.787Z,61.40
2022-08-12T19:15:54.670Z,61.70
2022-08-12T19:18:29.727Z,61.40
2022-08-12T19:21:11.580Z,61.00
2022-08-12T19:23:44.046Z,61.30
2022-08-12T19:26:12.604Z,61.60
2022-08-12T19:28:41.532Z,62.60
2022-08-12T19:31:44.586Z,62.00
2022-08-12T19:34:56.469Z,62.20
2022-08-12T19:37:22.612Z,62.50
2022-08-12T19:40:09.520Z,62.80
2022-08-12T19:42:44.572Z,62.80
2022-08-12T19:45:15.706Z,63.20
2022-08-12T19:47:46.788Z,63.30
2022-08-12T19:50:19.619Z,63.60
2022-08-12T19:52:54.759Z,63.90
2022-08-12T19:55:25.261Z,63.90
2022-08-12T19:58:03.258Z,64.20
2022-08-12T20:00:34.454Z,64.30
2022-08-12T20:03:06.358Z,64.30
2022-08-12T20:06:05.388Z,64.40
2022-08-12T20:08:27.918Z,64.70
2022-08-12T20:12:13.088Z,64.80
2022-08-12T20:14:00.384Z,65.10
2022-08-12T20:16:51.618Z,65.50
2022-08-12T20:19:52.202Z,65.50
2022-08-12T20:22:16.633Z,66.50
2022-08-12T20:24:54.901Z,65.70
2022-08-12T20:27:29.301Z,65.90
2022-08-12T20:30:13.766Z,65.90
2022-08-12T20:32:53.916Z,66.20
2022-08-12T20:36:06.046Z,66.30
2022-08-12T20:38:26.384Z,67.00
2022-08-12T20:40:55.297Z,66.70
2022-08-12T20:43:28.363Z,66.90
2022-08-12T20:46:02.302Z,66.80
2022-08-12T20:48:30.526Z,66.90
2022-08-12T20:51:04.510Z,67.20
2022-08-12T20:53:58.639Z,67.30
2022-08-12T20:56:31.207Z,67.50
2022-08-12T20:59:01.467Z,67.60
2022-08-12T21:01:47.022Z,67.90
2022-08-12T21:04:36.442Z,67.80
2022-08-12T21:07:10.372Z,68.00
2022-08-12T21:09:42.869Z,67.90
2022-08-12T21:12:27.368Z,67.90
2022-08-12T21:15:17.542Z,67.90
2022-08-12T21:18:08.949Z,67.90
2022-08-12T21:20:37.960Z,67.90
2022-08-12T21:23:07.684Z,68.10
2022-08-12T21:25:45.244Z,68.20
2022-08-12T21:28:14.304Z,68.30
2022-08-12T21:31:10.979Z,68.40
2022-08-12T21:34:06.577Z,68.40
2022-08-12T21:36:32.330Z,69.30
2022-08-12T21:39:18.898Z,68.60
2022-08-12T21:41:50.979Z,68.70
2022-08-12T21:44:24.117Z,68.90
2022-08-12T21:47:20.403Z,69.00
2022-08-12T21:49:53.828Z,69.00
2022-08-12T21:52:34.034Z,69.40
2022-08-12T21:55:08.490Z,69.50
2022-08-12T21:57:54.045Z,69.60
2022-08-12T22:00:33.582Z,69.80
2022-08-12T22:04:01.490Z,70.00
2022-08-12T22:06:30.707Z,71.10
2022-08-12T22:09:15.756Z,70.50
2022-08-12T22:11:56.327Z,70.80
2022-08-12T22:14:28.625Z,71.10
2022-08-12T22:16:58.830Z,71.40
2022-08-12T22:19:29.203Z,71.70
2022-08-12T22:22:04.726Z,71.60
2022-08-12T22:24:33.729Z,71.90
2022-08-12T22:27:08.062Z,72.20
2022-08-12T22:30:09.475Z,72.20
2022-08-12T22:32:50.555Z,72.70
2022-08-12T22:35:56.130Z,73.00
2022-08-12T22:38:26.835Z,73.30
2022-08-12T22:41:00.965Z,73.30
2022-08-12T22:44:01.044Z,73.60
2022-08-12T22:46:53.593Z,73.70
2022-08-12T22:49:37.339Z,73.90
2022-08-12T22:52:12.914Z,74.10
2022-08-12T22:54:57.971Z,74.40
2022-08-12T22:57:53.231Z,74.60
2022-08-12T23:00:27.352Z,74.80
2022-08-12T23:03:02.774Z,75.10
2022-08-12T23:05:57.504Z,76.10
2022-08-12T23:08:22.992Z,75.40
2022-08-12T23:10:51.599Z,75.50
2022-08-12T23:13:43.890Z,75.80
2022-08-12T23:16:28.256Z,76.00
2022-08-12T23:19:01.649Z,76.00
2022-08-12T23:22:03.432Z,76.00
2022-08-12T23:24:27.567Z,76.30
2022-08-12T23:27:13.677Z,76.80
2022-08-12T23:29:43.452Z,76.90
2022-08-12T23:32:36.664Z,77.00
2022-08-12T23:35:03.775Z,77.10
2022-08-12T23:37:46.345Z,77.40
2022-08-12T23:40:17.940Z,77.60
2022-08-12T23:42:47.837Z,77.90
2022-08-12T23:45:20.767Z,78.20
2022-08-12T23:48:02.494Z,78.30
2022-08-12T23:50:33.378Z,78.50
2022-08-12T23:53:05.745Z,78.60
2022-08-12T23:55:38.256Z,78.70
2022-08-12T23:58:22.479Z,78.90
